Terminal Aerodrome Forecast
Issued by NWS

Home | Current Version | Previous Version | Text Only | Print | Product List | Glossary On
Versions: 1 2 3 4 5 6 7 8 9 10 11 12 13
415
FTUS42 KJAX 231725
TAFCRG
TAF
KCRG 231725Z 2318/2418 07011KT P6SM VCTS SCT030 BKN040CB BKN150
     FM232200 07012KT P6SM SCT020 BKN040 BKN150
     FM240100 06007KT P6SM SCT020 BKN250
     FM240600 04003KT P6SM SCT020 SCT250
     FM241400 06010KT P6SM SCT030 SCT250=

USA.gov is the U.S. government's official web portal to all federal, state and local government web resources and services.